createdAt,value
2019-01-25T00:00:17.021Z,94.43
2019-01-25T00:01:17.034Z,93.99
2019-01-25T00:02:16.942Z,93.21
2019-01-25T00:03:16.902Z,92.83
2019-01-25T00:04:16.848Z,92.63
2019-01-25T00:05:16.798Z,92.34
2019-01-25T00:06:16.763Z,92.63
2019-01-25T00:07:16.754Z,92.54
2019-01-25T00:08:16.658Z,91.62
2019-01-25T00:09:16.620Z,91.96
2019-01-25T00:10:16.584Z,91.42
2019-01-25T00:11:16.526Z,91.33
2019-01-25T00:12:16.487Z,91.91
2019-01-25T00:13:16.448Z,91.91
2019-01-25T00:14:16.398Z,91.91
2019-01-25T00:15:16.347Z,91.91
2019-01-25T00:16:16.303Z,91.62
2019-01-25T00:17:16.354Z,91.33
2019-01-25T00:18:16.214Z,92.00
2019-01-25T00:19:16.218Z,91.33
2019-01-25T00:20:16.122Z,91.42
2019-01-25T00:21:16.079Z,91.14
2019-01-25T00:22:16.035Z,90.46
2019-01-25T00:23:15.994Z,90.46
2019-01-25T00:24:15.952Z,89.97
2019-01-25T00:25:15.900Z,90.94
2019-01-25T00:26:15.863Z,90.84
2019-01-25T00:27:15.809Z,90.84
2019-01-25T00:28:15.763Z,90.84
2019-01-25T00:29:15.726Z,91.14
2019-01-25T00:30:15.682Z,91.33
2019-01-25T00:31:15.635Z,91.91
2019-01-25T00:32:15.582Z,92.49
2019-01-25T00:33:15.552Z,92.97
2019-01-25T00:34:15.522Z,93.07
2019-01-25T00:35:15.454Z,92.30
2019-01-25T00:36:15.486Z,92.97
2019-01-25T00:37:15.365Z,93.07
2019-01-25T00:38:15.339Z,93.32
2019-01-25T00:39:15.284Z,93.60
2019-01-25T00:40:15.225Z,93.55
2019-01-25T00:41:15.181Z,93.26
2019-01-25T00:42:15.130Z,93.41
2019-01-25T00:43:15.091Z,93.32
2019-01-25T00:44:15.055Z,92.88
2019-01-25T00:45:15.001Z,92.54
2019-01-25T00:46:14.964Z,92.74
2019-01-25T00:47:14.916Z,93.12
2019-01-25T00:48:14.870Z,93.07
2019-01-25T00:49:14.831Z,92.88
2019-01-25T00:50:14.776Z,92.88
2019-01-25T00:51:14.732Z,93.07
2019-01-25T00:52:14.689Z,92.58
2019-01-25T00:53:14.640Z,92.58
2019-01-25T00:54:14.595Z,92.97
2019-01-25T00:55:14.559Z,92.49
2019-01-25T00:56:14.507Z,93.26
2019-01-25T00:57:14.469Z,92.58
2019-01-25T00:58:14.416Z,93.46
2019-01-25T00:59:14.382Z,93.46
2019-01-25T01:00:14.323Z,93.94
2019-01-25T01:01:14.282Z,93.75
2019-01-25T01:02:14.239Z,93.46
2019-01-25T01:03:14.196Z,94.13
2019-01-25T01:04:14.138Z,94.48
2019-01-25T01:05:14.104Z,94.48
2019-01-25T01:06:14.067Z,94.23
2019-01-25T01:07:14.014Z,94.62
2019-01-25T01:08:13.965Z,94.62
2019-01-25T01:09:13.923Z,94.43
2019-01-25T01:10:14.409Z,94.81
2019-01-25T01:11:13.852Z,94.71
2019-01-25T01:12:13.789Z,94.71
2019-01-25T01:13:13.747Z,94.52
2019-01-25T01:14:13.690Z,94.43
2019-01-25T01:15:13.646Z,94.23
2019-01-25T01:16:13.605Z,94.62
2019-01-25T01:17:13.555Z,94.52
2019-01-25T01:18:13.513Z,94.52
2019-01-25T01:19:13.501Z,94.62
2019-01-25T01:20:13.425Z,94.28
2019-01-25T01:21:13.381Z,94.52
2019-01-25T01:22:13.334Z,94.52
2019-01-25T01:23:13.305Z,94.67
2019-01-25T01:24:13.256Z,95.29
2019-01-25T01:25:13.207Z,94.23
2019-01-25T01:26:13.156Z,94.43
2019-01-25T01:27:13.110Z,94.48
2019-01-25T01:28:13.078Z,93.60
2019-01-25T01:29:13.036Z,91.86
2019-01-25T01:30:12.971Z,92.64
2019-01-25T01:31:12.941Z,92.25
2019-01-25T01:32:12.887Z,92.64
2019-01-25T01:33:12.848Z,91.86
2019-01-25T01:34:12.791Z,91.58
2019-01-25T01:35:12.758Z,91.38
2019-01-25T01:36:12.705Z,90.80
2019-01-25T01:37:12.671Z,90.17
2019-01-25T01:38:12.618Z,89.74
2019-01-25T01:39:12.569Z,89.74
2019-01-25T01:40:12.522Z,90.03
2019-01-25T01:41:12.481Z,89.83
2019-01-25T01:42:12.439Z,90.22
2019-01-25T01:43:12.398Z,89.54
2019-01-25T01:44:12.351Z,89.97
2019-01-25T01:45:12.302Z,89.64
2019-01-25T01:46:12.260Z,90.22
2019-01-25T01:47:12.216Z,90.12
2019-01-25T01:48:12.165Z,90.41
2019-01-25T01:49:12.148Z,90.70
2019-01-25T01:50:12.074Z,90.70
2019-01-25T01:51:12.038Z,91.19
2019-01-25T01:52:11.981Z,90.90
2019-01-25T01:53:11.941Z,91.28
2019-01-25T01:54:11.906Z,91.19
2019-01-25T01:55:11.849Z,91.77
2019-01-25T01:56:11.818Z,92.54
2019-01-25T01:57:11.847Z,92.11
2019-01-25T01:58:11.726Z,92.79
2019-01-25T01:59:11.672Z,93.27
2019-01-25T02:00:11.624Z,93.56
2019-01-25T02:01:11.589Z,93.56
2019-01-25T02:02:11.537Z,93.95
2019-01-25T02:03:11.495Z,93.37
2019-01-25T02:04:11.444Z,94.14
2019-01-25T02:05:11.398Z,93.85
2019-01-25T02:06:11.359Z,94.04
2019-01-25T02:07:11.306Z,93.90
2019-01-25T02:08:11.269Z,93.51
2019-01-25T02:09:11.235Z,93.22
2019-01-25T02:10:11.186Z,93.32
2019-01-25T02:11:11.124Z,92.54
2019-01-25T02:12:11.082Z,92.74
2019-01-25T02:13:11.041Z,92.44
2019-01-25T02:14:10.991Z,93.02
2019-01-25T02:15:10.946Z,93.41
2019-01-25T02:16:10.911Z,93.37
2019-01-25T02:17:10.860Z,93.60
2019-01-25T02:18:10.807Z,94.14
2019-01-25T02:19:10.796Z,93.75
2019-01-25T02:20:10.684Z,93.95
2019-01-25T02:21:10.686Z,93.90
2019-01-25T02:22:10.646Z,93.70
2019-01-25T02:23:10.587Z,93.60
2019-01-25T02:24:10.543Z,93.99
2019-01-25T02:25:10.503Z,94.04
2019-01-25T02:26:10.459Z,94.14
2019-01-25T02:27:10.405Z,94.72
2019-01-25T02:28:10.366Z,94.38
2019-01-25T02:29:10.323Z,94.43
2019-01-25T02:30:10.276Z,94.33
2019-01-25T02:31:10.228Z,94.43
2019-01-25T02:32:10.186Z,94.67
2019-01-25T02:33:10.132Z,94.43
2019-01-25T02:34:10.099Z,94.48
2019-01-25T02:35:10.046Z,94.24
2019-01-25T02:36:10.021Z,94.24
2019-01-25T02:37:09.964Z,94.53
2019-01-25T02:38:09.910Z,94.57
2019-01-25T02:39:09.868Z,94.33
2019-01-25T02:40:09.831Z,95.20
2019-01-25T02:41:09.779Z,95.01
2019-01-25T02:42:09.734Z,95.01
2019-01-25T02:43:09.682Z,94.62
2019-01-25T02:44:09.653Z,94.53
2019-01-25T02:45:09.600Z,94.72
2019-01-25T02:46:09.544Z,94.67
2019-01-25T02:47:09.495Z,94.18
2019-01-25T02:48:09.453Z,94.18
2019-01-25T02:49:09.414Z,94.43
2019-01-25T02:50:09.371Z,94.57
2019-01-25T02:51:09.324Z,94.38
2019-01-25T02:52:09.291Z,94.48
2019-01-25T02:53:09.244Z,94.57
2019-01-25T02:54:09.193Z,94.48
2019-01-25T02:55:09.146Z,94.18
2019-01-25T02:56:09.096Z,94.28
2019-01-25T02:57:09.049Z,94.28
2019-01-25T02:58:09.006Z,94.09
2019-01-25T02:59:08.969Z,94.48
2019-01-25T03:00:08.917Z,94.57
2019-01-25T03:01:08.894Z,93.90
2019-01-25T03:02:08.834Z,94.57
2019-01-25T03:03:08.786Z,94.38
2019-01-25T03:04:08.742Z,94.67
2019-01-25T03:05:08.703Z,94.57
2019-01-25T03:06:08.657Z,95.15
2019-01-25T03:07:08.594Z,95.54
2019-01-25T03:08:08.568Z,95.64
2019-01-25T03:09:08.505Z,95.49
2019-01-25T03:10:08.464Z,96.07
2019-01-25T03:11:08.430Z,96.84
2019-01-25T03:12:08.381Z,96.84
2019-01-25T03:13:08.332Z,97.42
2019-01-25T03:14:08.294Z,97.72
2019-01-25T03:15:08.241Z,97.52
2019-01-25T03:16:08.196Z,97.72
2019-01-25T03:17:08.147Z,97.62
2019-01-25T03:18:08.115Z,97.72
2019-01-25T03:19:08.058Z,98.39
2019-01-25T03:20:08.015Z,97.77
2019-01-25T03:21:07.980Z,97.47
2019-01-25T03:22:07.941Z,97.96
2019-01-25T03:23:07.881Z,97.57
2019-01-25T03:24:07.836Z,97.28
2019-01-25T03:25:07.796Z,96.70
2019-01-25T03:26:07.749Z,97.09
2019-01-25T03:27:07.716Z,96.60
2019-01-25T03:28:07.664Z,96.99
2019-01-25T03:29:07.621Z,97.04
2019-01-25T03:30:07.583Z,97.77
2019-01-25T03:31:07.529Z,97.42
2019-01-25T03:32:07.508Z,97.47
2019-01-25T03:33:07.435Z,97.77
2019-01-25T03:34:07.379Z,97.86
2019-01-25T03:35:07.338Z,97.38
2019-01-25T03:36:07.297Z,97.67
2019-01-25T03:37:07.244Z,97.67
2019-01-25T03:38:07.211Z,97.86
2019-01-25T03:39:07.154Z,97.47
2019-01-25T03:40:07.106Z,97.47
2019-01-25T03:41:07.063Z,97.38
2019-01-25T03:42:07.018Z,97.47
2019-01-25T03:43:06.978Z,97.86
2019-01-25T03:44:06.927Z,98.20
2019-01-25T03:45:06.898Z,98.25
2019-01-25T03:46:06.843Z,97.67
2019-01-25T03:47:06.805Z,97.18
2019-01-25T03:48:06.760Z,97.47
2019-01-25T03:49:06.711Z,97.57
2019-01-25T03:50:06.658Z,97.57
2019-01-25T03:51:06.604Z,97.18
2019-01-25T03:52:06.568Z,98.35
2019-01-25T03:53:06.540Z,97.47
2019-01-25T03:54:06.489Z,97.47
2019-01-25T03:55:06.435Z,97.47
2019-01-25T03:56:06.404Z,97.86
2019-01-25T03:57:06.363Z,97.96
2019-01-25T03:58:06.299Z,97.47
2019-01-25T03:59:06.267Z,97.77
2019-01-25T04:00:06.201Z,97.28
2019-01-25T04:01:06.166Z,97.28
2019-01-25T04:02:06.126Z,97.28
2019-01-25T04:03:06.068Z,97.57
2019-01-25T04:04:06.031Z,97.57
2019-01-25T04:05:05.993Z,97.47
2019-01-25T04:06:05.944Z,97.77
2019-01-25T04:07:05.923Z,97.77
2019-01-25T04:08:05.852Z,97.57
2019-01-25T04:09:05.810Z,98.15
2019-01-25T04:10:05.798Z,97.96
2019-01-25T04:11:05.709Z,98.25
2019-01-25T04:12:05.664Z,98.15
2019-01-25T04:13:05.622Z,98.35
2019-01-25T04:14:05.574Z,98.05
2019-01-25T04:15:05.531Z,97.86
2019-01-25T04:16:05.498Z,98.15
2019-01-25T04:17:05.447Z,98.15
2019-01-25T04:18:05.422Z,98.15
2019-01-25T04:19:05.350Z,98.54
2019-01-25T04:20:05.314Z,98.35
2019-01-25T04:21:05.321Z,99.16
2019-01-25T04:22:05.222Z,99.16
2019-01-25T04:23:05.174Z,99.74
2019-01-25T04:24:05.138Z,99.99
2019-01-25T04:25:05.082Z,99.94
2019-01-25T04:26:05.033Z,99.94
2019-01-25T04:27:04.989Z,99.99
2019-01-25T04:28:04.944Z,99.84
2019-01-25T04:29:04.897Z,99.99
2019-01-25T04:30:04.856Z,99.99
2019-01-25T04:31:04.819Z,99.99
2019-01-25T04:32:04.762Z,99.99
2019-01-25T04:33:04.730Z,99.99
2019-01-25T04:34:04.676Z,99.99
2019-01-25T04:35:04.632Z,99.99
2019-01-25T04:36:04.595Z,99.99
2019-01-25T04:37:04.543Z,99.99
2019-01-25T04:38:04.494Z,99.99
2019-01-25T04:39:04.456Z,99.99
2019-01-25T04:40:04.409Z,99.99
2019-01-25T04:41:11.512Z,99.99
2019-01-25T04:42:04.309Z,99.99
2019-01-25T04:43:04.275Z,99.99
2019-01-25T04:44:04.222Z,99.99
2019-01-25T04:45:04.181Z,99.99
2019-01-25T04:46:04.136Z,99.99
2019-01-25T04:47:04.087Z,99.99
2019-01-25T04:48:04.046Z,99.99
2019-01-25T04:49:03.990Z,99.99
2019-01-25T04:50:03.950Z,99.99
2019-01-25T04:51:03.915Z,99.99
2019-01-25T04:52:03.863Z,99.99
2019-01-25T04:53:03.811Z,99.99
2019-01-25T04:54:03.783Z,99.99
2019-01-25T04:55:03.726Z,99.99
2019-01-25T04:56:03.692Z,99.69
2019-01-25T04:57:03.637Z,99.69
2019-01-25T04:58:03.590Z,99.99
2019-01-25T04:59:03.553Z,99.99
2019-01-25T05:00:03.494Z,99.99
2019-01-25T05:01:03.458Z,99.99
2019-01-25T05:02:03.408Z,99.99
2019-01-25T05:03:03.368Z,99.99
2019-01-25T05:04:03.323Z,99.99
2019-01-25T05:05:03.278Z,99.99
2019-01-25T05:06:03.232Z,99.69
2019-01-25T05:07:03.189Z,99.89
2019-01-25T05:08:03.136Z,99.99
2019-01-25T05:09:03.091Z,99.99
2019-01-25T05:10:03.054Z,99.99
2019-01-25T05:11:03.015Z,99.89
2019-01-25T05:12:02.976Z,99.60
2019-01-25T05:13:02.913Z,99.69
2019-01-25T05:14:02.883Z,99.51
2019-01-25T05:15:02.819Z,99.89
2019-01-25T05:16:02.779Z,99.89
2019-01-25T05:17:02.742Z,99.69
2019-01-25T05:18:02.698Z,99.89
2019-01-25T05:19:02.644Z,99.60
2019-01-25T05:20:02.597Z,99.21
2019-01-25T05:21:02.558Z,98.83
2019-01-25T05:22:02.508Z,99.41
2019-01-25T05:23:02.466Z,98.63
2019-01-25T05:24:02.417Z,99.11
2019-01-25T05:25:02.371Z,99.11
2019-01-25T05:26:02.336Z,98.54
2019-01-25T05:27:02.289Z,97.96
2019-01-25T05:28:02.248Z,99.02
2019-01-25T05:29:02.208Z,98.25
2019-01-25T05:30:02.154Z,98.73
2019-01-25T05:31:02.107Z,98.15
2019-01-25T05:32:02.055Z,98.25
2019-01-25T05:33:02.021Z,98.25
2019-01-25T05:34:01.963Z,98.54
2019-01-25T05:35:01.932Z,98.63
2019-01-25T05:36:01.885Z,98.54
2019-01-25T05:37:01.834Z,98.25
2019-01-25T05:38:01.789Z,98.44
2019-01-25T05:39:01.743Z,98.44
2019-01-25T05:40:01.701Z,98.73
2019-01-25T05:41:01.662Z,98.05
2019-01-25T05:42:01.631Z,97.96
2019-01-25T05:43:01.598Z,97.96
2019-01-25T05:44:01.541Z,97.67
2019-01-25T05:45:01.471Z,97.47
2019-01-25T05:46:01.426Z,97.47
2019-01-25T05:47:01.374Z,97.67
2019-01-25T05:48:01.337Z,97.57
2019-01-25T05:49:01.289Z,97.28
2019-01-25T05:50:01.263Z,96.80
2019-01-25T05:51:01.200Z,96.65
2019-01-25T05:52:01.162Z,97.04
2019-01-25T05:53:01.113Z,97.47
2019-01-25T05:54:01.064Z,97.57
2019-01-25T05:55:01.023Z,97.52
2019-01-25T05:56:00.968Z,97.42
2019-01-25T05:57:00.941Z,97.33
2019-01-25T05:58:00.896Z,97.42
2019-01-25T05:59:00.840Z,97.67
2019-01-25T06:00:00.810Z,97.52
2019-01-25T06:01:00.745Z,97.42
2019-01-25T06:02:00.713Z,97.62
2019-01-25T06:03:00.662Z,97.23
2019-01-25T06:04:00.608Z,97.04
2019-01-25T06:05:00.569Z,97.52
2019-01-25T06:06:00.521Z,97.42
2019-01-25T06:07:00.475Z,97.42
2019-01-25T06:08:00.433Z,97.72
2019-01-25T06:09:00.390Z,97.72
2019-01-25T06:10:00.340Z,97.42
2019-01-25T06:11:00.304Z,98.20
2019-01-25T06:12:00.260Z,98.88
2019-01-25T06:13:00.210Z,98.10
2019-01-25T06:14:00.153Z,98.30
2019-01-25T06:15:00.201Z,98.78
2019-01-25T06:16:00.079Z,98.78
2019-01-25T06:17:00.024Z,98.97
2019-01-25T06:17:59.979Z,99.46
2019-01-25T06:18:59.941Z,99.07
2019-01-25T06:19:59.897Z,99.41
2019-01-25T06:20:59.860Z,99.84
2019-01-25T06:21:59.794Z,99.55
2019-01-25T06:22:59.759Z,99.84
2019-01-25T06:23:59.707Z,99.65
2019-01-25T06:24:59.660Z,99.65
2019-01-25T06:25:59.619Z,99.26
2019-01-25T06:26:59.577Z,99.84
2019-01-25T06:27:59.525Z,99.74
2019-01-25T06:28:59.507Z,99.46
2019-01-25T06:29:59.448Z,99.55
2019-01-25T06:30:59.397Z,99.65
2019-01-25T06:31:59.345Z,99.65
2019-01-25T06:32:59.299Z,99.46
2019-01-25T06:33:59.250Z,99.26
2019-01-25T06:34:59.216Z,99.74
2019-01-25T06:35:59.163Z,99.99
2019-01-25T06:36:59.125Z,99.99
2019-01-25T06:37:59.082Z,99.99
2019-01-25T06:38:59.031Z,99.99
2019-01-25T06:39:58.989Z,99.99
2019-01-25T06:40:58.944Z,99.99
2019-01-25T06:41:58.884Z,99.99
2019-01-25T06:42:58.849Z,99.99
2019-01-25T06:43:58.804Z,99.79
2019-01-25T06:44:58.760Z,99.99
2019-01-25T06:45:58.706Z,99.99
2019-01-25T06:46:58.665Z,99.79
2019-01-25T06:47:58.623Z,99.99
2019-01-25T06:48:58.578Z,99.79
2019-01-25T06:49:58.537Z,99.99
2019-01-25T06:50:58.508Z,99.99
2019-01-25T06:51:58.440Z,99.99
2019-01-25T06:52:58.408Z,99.99
2019-01-25T06:53:58.352Z,99.99
2019-01-25T06:54:58.328Z,99.99
2019-01-25T06:55:58.269Z,99.99
2019-01-25T06:56:58.216Z,99.99
2019-01-25T06:57:58.171Z,99.99
2019-01-25T06:58:58.120Z,99.99
2019-01-25T06:59:58.071Z,99.99
2019-01-25T07:00:58.032Z,99.99
2019-01-25T07:01:57.994Z,99.99
2019-01-25T07:02:57.941Z,99.99
2019-01-25T07:03:57.897Z,99.99
2019-01-25T07:04:57.852Z,99.99
2019-01-25T07:05:57.801Z,99.99
2019-01-25T07:06:57.762Z,99.94
2019-01-25T07:07:57.711Z,99.74
2019-01-25T07:08:57.669Z,99.99
2019-01-25T07:09:57.631Z,99.99
2019-01-25T07:10:57.586Z,99.65
2019-01-25T07:11:57.540Z,99.69
2019-01-25T07:12:57.491Z,99.50
2019-01-25T07:13:57.469Z,99.79
2019-01-25T07:14:57.395Z,99.99
2019-01-25T07:15:57.353Z,99.99
2019-01-25T07:16:57.317Z,99.99
2019-01-25T07:17:57.277Z,99.99
2019-01-25T07:18:57.212Z,99.79
2019-01-25T07:19:57.174Z,99.79
2019-01-25T07:20:57.123Z,99.79
2019-01-25T07:21:57.088Z,99.99
2019-01-25T07:22:57.047Z,99.99
2019-01-25T07:23:56.994Z,99.89
2019-01-25T07:24:57.367Z,99.79
2019-01-25T07:25:56.899Z,99.50
2019-01-25T07:26:56.854Z,99.89
2019-01-25T07:27:56.806Z,99.99
2019-01-25T07:28:56.765Z,99.99
2019-01-25T07:29:56.727Z,99.84
2019-01-25T07:30:56.670Z,99.99
2019-01-25T07:31:56.628Z,99.99
2019-01-25T07:32:56.594Z,99.99
2019-01-25T07:33:56.574Z,99.99
2019-01-25T07:34:56.492Z,99.99
2019-01-25T07:35:56.459Z,99.99
2019-01-25T07:36:56.419Z,99.99
2019-01-25T07:37:56.377Z,99.99
2019-01-25T07:38:56.343Z,99.99
2019-01-25T07:39:56.290Z,99.99
2019-01-25T07:40:56.322Z,99.99
2019-01-25T07:41:59.381Z,99.99
2019-01-25T07:42:56.138Z,99.99
2019-01-25T07:43:56.096Z,99.99
2019-01-25T07:44:56.186Z,99.99
2019-01-25T07:45:55.989Z,99.99
2019-01-25T07:46:55.952Z,99.99
2019-01-25T07:47:55.905Z,99.99
2019-01-25T07:48:55.862Z,99.99
2019-01-25T07:49:55.815Z,99.99
2019-01-25T07:50:55.785Z,99.99
2019-01-25T07:51:55.727Z,99.99
2019-01-25T07:52:55.697Z,99.99
2019-01-25T07:53:55.670Z,99.99
2019-01-25T07:54:55.630Z,99.99
2019-01-25T07:55:55.568Z,99.99
2019-01-25T07:56:55.528Z,99.99
2019-01-25T07:57:55.466Z,99.99
2019-01-25T07:58:55.400Z,99.99
2019-01-25T07:59:55.373Z,99.99
2019-01-25T08:00:55.312Z,99.99
2019-01-25T08:01:55.282Z,99.99
2019-01-25T08:02:55.243Z,99.99
2019-01-25T08:03:55.185Z,99.99
2019-01-25T08:04:55.137Z,99.99
2019-01-25T08:05:55.085Z,99.99
2019-01-25T08:06:55.038Z,99.99
2019-01-25T08:07:55.003Z,99.99
2019-01-25T08:08:54.948Z,99.99
2019-01-25T08:09:54.956Z,99.99
2019-01-25T08:10:54.910Z,99.99
2019-01-25T08:11:54.813Z,99.99
2019-01-25T08:12:54.789Z,99.99
2019-01-25T08:13:54.749Z,99.99
2019-01-25T08:14:54.677Z,99.99
2019-01-25T08:15:54.662Z,99.99
2019-01-25T08:16:54.599Z,99.99
2019-01-25T08:17:54.571Z,99.99
2019-01-25T08:18:54.525Z,99.99
2019-01-25T08:19:54.530Z,99.99
2019-01-25T08:20:54.420Z,99.99
2019-01-25T08:21:54.393Z,99.99
2019-01-25T08:22:54.325Z,99.99
2019-01-25T08:23:54.285Z,99.99
2019-01-25T08:24:54.266Z,99.99
2019-01-25T08:25:54.190Z,99.99
2019-01-25T08:26:54.217Z,99.99
2019-01-25T08:27:54.119Z,99.99
2019-01-25T08:28:54.090Z,99.99
2019-01-25T08:29:54.018Z,99.99
2019-01-25T08:30:54.016Z,99.99
2019-01-25T08:31:53.945Z,99.99
2019-01-25T08:32:53.891Z,99.99
2019-01-25T08:33:53.839Z,99.99
2019-01-25T08:34:53.820Z,99.99
2019-01-25T08:35:53.751Z,99.99
2019-01-25T08:36:53.693Z,99.99
2019-01-25T08:37:53.665Z,99.99
2019-01-25T08:38:53.589Z,99.99
2019-01-25T08:39:53.582Z,99.99
2019-01-25T08:40:53.869Z,99.99
2019-01-25T08:41:53.510Z,99.99
2019-01-25T08:42:53.453Z,99.99
2019-01-25T08:43:53.360Z,99.99
2019-01-25T08:44:53.492Z,99.99
2019-01-25T08:45:53.335Z,99.99
2019-01-25T08:46:53.263Z,99.99
2019-01-25T08:47:53.185Z,99.99
2019-01-25T08:48:53.147Z,99.99
2019-01-25T08:49:57.821Z,99.99
2019-01-25T08:50:53.056Z,99.99
2019-01-25T08:51:53.051Z,99.99
2019-01-25T08:52:52.956Z,99.99
2019-01-25T08:53:52.981Z,99.99
2019-01-25T08:54:52.937Z,99.99
2019-01-25T08:55:52.826Z,99.99
2019-01-25T08:56:52.789Z,99.99
2019-01-25T08:57:52.745Z,99.99
2019-01-25T08:58:52.693Z,99.99
2019-01-25T08:59:52.642Z,99.99
2019-01-25T09:00:52.612Z,99.99
2019-01-25T09:01:52.555Z,99.99
2019-01-25T09:02:52.501Z,99.99
2019-01-25T09:03:52.462Z,99.99
2019-01-25T09:04:52.424Z,99.99
2019-01-25T09:05:52.362Z,99.99
2019-01-25T09:06:52.328Z,99.99
2019-01-25T09:07:52.284Z,99.99
2019-01-25T09:08:52.235Z,99.99
2019-01-25T09:09:52.193Z,99.99
2019-01-25T09:10:52.140Z,99.99
2019-01-25T09:11:52.087Z,99.99
2019-01-25T09:12:52.045Z,99.99
2019-01-25T09:13:52.008Z,99.99
2019-01-25T09:14:51.967Z,99.99
2019-01-25T09:15:51.926Z,99.99
2019-01-25T09:16:51.869Z,99.99
2019-01-25T09:17:51.832Z,99.99
2019-01-25T09:18:51.780Z,99.99
2019-01-25T09:19:51.724Z,99.99
2019-01-25T09:20:51.689Z,99.99
2019-01-25T09:21:51.645Z,99.99
2019-01-25T09:22:51.605Z,99.99
2019-01-25T09:23:51.548Z,99.99
2019-01-25T09:24:51.512Z,99.99
2019-01-25T09:25:51.468Z,99.99
2019-01-25T09:26:51.423Z,99.99
2019-01-25T09:27:51.367Z,99.99
2019-01-25T09:28:51.323Z,99.99
2019-01-25T09:29:51.276Z,99.99
2019-01-25T09:30:51.245Z,99.99
2019-01-25T09:31:51.184Z,99.99
2019-01-25T09:32:51.145Z,99.99
2019-01-25T09:33:51.101Z,99.99
2019-01-25T09:34:51.048Z,99.99
2019-01-25T09:35:51.014Z,99.99
2019-01-25T09:36:51.002Z,99.99
2019-01-25T09:37:50.919Z,99.99
2019-01-25T09:38:50.864Z,99.99
2019-01-25T09:39:50.832Z,99.99
2019-01-25T09:40:50.781Z,99.99
2019-01-25T09:41:50.740Z,99.99
2019-01-25T09:42:50.682Z,99.99
2019-01-25T09:43:50.652Z,99.99
2019-01-25T09:44:50.595Z,99.99
2019-01-25T09:45:50.550Z,99.99
2019-01-25T09:46:50.514Z,99.99
2019-01-25T09:47:50.462Z,99.99
2019-01-25T09:48:50.426Z,99.99
2019-01-25T09:49:50.369Z,99.99
2019-01-25T09:50:52.945Z,99.99
2019-01-25T09:51:50.286Z,99.99
2019-01-25T09:52:50.241Z,99.99
2019-01-25T09:53:50.193Z,99.99
2019-01-25T09:54:50.149Z,99.99
2019-01-25T09:55:50.099Z,99.99
2019-01-25T09:56:50.054Z,99.99
2019-01-25T09:57:50.017Z,99.99
2019-01-25T09:58:49.971Z,99.99
2019-01-25T09:59:49.928Z,99.99
2019-01-25T10:00:49.876Z,99.99
2019-01-25T10:01:49.833Z,99.99
2019-01-25T10:02:49.782Z,99.99
2019-01-25T10:03:49.744Z,99.99
2019-01-25T10:04:49.696Z,99.99
2019-01-25T10:05:49.639Z,99.99
2019-01-25T10:06:49.594Z,99.99
2019-01-25T10:07:49.567Z,99.99
2019-01-25T10:08:49.501Z,99.99
2019-01-25T10:09:49.461Z,99.99
2019-01-25T10:10:49.421Z,99.99
2019-01-25T10:11:49.377Z,99.99
2019-01-25T10:12:49.328Z,99.99
2019-01-25T10:13:49.281Z,99.99
2019-01-25T10:14:49.243Z,99.99
2019-01-25T10:15:49.195Z,99.99
2019-01-25T10:16:49.151Z,99.99
2019-01-25T10:17:49.100Z,99.99
2019-01-25T10:18:49.060Z,99.99
2019-01-25T10:19:49.015Z,99.99
2019-01-25T10:20:48.959Z,99.99
2019-01-25T10:21:48.917Z,99.99
2019-01-25T10:22:48.881Z,99.99
2019-01-25T10:23:48.838Z,99.99
2019-01-25T10:24:48.784Z,99.99
2019-01-25T10:25:48.741Z,99.99
2019-01-25T10:26:48.696Z,99.99
2019-01-25T10:27:48.648Z,99.99
2019-01-25T10:28:48.615Z,99.99
2019-01-25T10:29:48.566Z,99.99
2019-01-25T10:30:48.514Z,99.99
2019-01-25T10:31:48.465Z,99.99
2019-01-25T10:32:48.418Z,99.99
2019-01-25T10:33:48.381Z,99.99
2019-01-25T10:34:48.338Z,99.99
2019-01-25T10:35:48.282Z,99.99
2019-01-25T10:36:48.240Z,99.99
2019-01-25T10:37:48.199Z,99.99
2019-01-25T10:38:48.166Z,99.99
2019-01-25T10:39:48.109Z,99.99
2019-01-25T10:40:48.060Z,99.99
2019-01-25T10:41:48.016Z,99.99
2019-01-25T10:42:53.048Z,99.99
2019-01-25T10:43:47.948Z,99.99
2019-01-25T10:44:47.902Z,99.99
2019-01-25T10:45:47.834Z,99.99
2019-01-25T10:46:47.798Z,99.99
2019-01-25T10:47:47.746Z,99.74
2019-01-25T10:48:47.700Z,99.94
2019-01-25T10:49:47.658Z,99.36
2019-01-25T10:50:47.608Z,99.16
2019-01-25T10:51:47.570Z,99.07
2019-01-25T10:52:47.531Z,99.26
2019-01-25T10:53:47.486Z,99.26
2019-01-25T10:54:47.430Z,99.99
2019-01-25T10:55:47.396Z,99.99
2019-01-25T10:56:47.340Z,99.74
2019-01-25T10:57:47.301Z,99.99
2019-01-25T10:58:47.261Z,99.99
2019-01-25T10:59:47.217Z,99.99
2019-01-25T11:00:47.170Z,99.99
2019-01-25T11:01:47.144Z,99.99
2019-01-25T11:02:47.089Z,99.99
2019-01-25T11:03:47.037Z,99.99
2019-01-25T11:04:46.998Z,99.99
2019-01-25T11:05:46.977Z,99.99
2019-01-25T11:06:46.904Z,99.99
2019-01-25T11:07:46.866Z,99.99
2019-01-25T11:08:46.818Z,99.99
2019-01-25T11:09:46.790Z,99.99
2019-01-25T11:10:46.731Z,99.99
2019-01-25T11:11:46.681Z,99.99
2019-01-25T11:12:46.644Z,99.99
2019-01-25T11:13:46.591Z,99.99
2019-01-25T11:14:46.553Z,99.99
2019-01-25T11:15:46.520Z,99.99
2019-01-25T11:16:46.455Z,99.99
2019-01-25T11:17:46.407Z,99.99
2019-01-25T11:18:46.374Z,99.99
2019-01-25T11:19:46.312Z,99.60
2019-01-25T11:20:46.275Z,98.54
2019-01-25T11:21:46.227Z,99.31
2019-01-25T11:22:46.189Z,98.54
2019-01-25T11:23:46.144Z,97.38
2019-01-25T11:24:46.095Z,96.02
2019-01-25T11:25:46.066Z,96.70
2019-01-25T11:26:46.007Z,96.60
2019-01-25T11:27:45.965Z,97.38
2019-01-25T11:28:45.911Z,96.99
2019-01-25T11:29:45.872Z,96.99
2019-01-25T11:30:45.831Z,96.80
2019-01-25T11:31:45.777Z,97.52
2019-01-25T11:32:45.742Z,97.38
2019-01-25T11:33:45.700Z,97.42
2019-01-25T11:34:45.653Z,97.38
2019-01-25T11:35:45.607Z,97.67
2019-01-25T11:36:45.568Z,97.81
2019-01-25T11:37:45.514Z,98.30
2019-01-25T11:38:45.474Z,98.00
2019-01-25T11:39:49.171Z,98.30
2019-01-25T11:40:45.394Z,97.62
2019-01-25T11:41:45.343Z,97.52
2019-01-25T11:42:45.303Z,97.23
2019-01-25T11:43:45.252Z,96.84
2019-01-25T11:44:45.215Z,97.23
2019-01-25T11:45:45.167Z,97.71
2019-01-25T11:46:45.114Z,97.91
2019-01-25T11:47:45.080Z,97.81
2019-01-25T11:48:45.042Z,98.00
2019-01-25T11:49:44.983Z,97.71
2019-01-25T11:50:44.945Z,98.15
2019-01-25T11:51:44.899Z,98.35
2019-01-25T11:52:44.852Z,98.25
2019-01-25T11:53:44.805Z,98.44
2019-01-25T11:54:44.764Z,98.63
2019-01-25T11:55:44.714Z,98.44
2019-01-25T11:56:44.670Z,99.21
2019-01-25T11:57:44.623Z,99.21
2019-01-25T11:58:44.589Z,99.51
2019-01-25T11:59:44.536Z,99.31
2019-01-25T12:00:44.503Z,99.41
2019-01-25T12:01:44.456Z,99.31
2019-01-25T12:02:44.412Z,99.99
2019-01-25T12:03:44.367Z,99.99
2019-01-25T12:04:44.322Z,99.99
2019-01-25T12:05:44.268Z,99.99
2019-01-25T12:06:44.234Z,99.41
2019-01-25T12:07:44.179Z,99.74
2019-01-25T12:08:44.150Z,99.99
2019-01-25T12:09:44.094Z,99.99
2019-01-25T12:10:44.048Z,99.94
2019-01-25T12:11:44.008Z,99.84
2019-01-25T12:12:43.986Z,99.99
2019-01-25T12:13:43.918Z,99.60
2019-01-25T12:14:43.874Z,98.93
2019-01-25T12:15:43.834Z,99.02
2019-01-25T12:16:43.781Z,99.21
2019-01-25T12:17:43.747Z,99.51
2019-01-25T12:18:43.687Z,98.83
2019-01-25T12:19:43.653Z,97.76
2019-01-25T12:20:43.600Z,97.86
2019-01-25T12:21:43.557Z,97.76
2019-01-25T12:22:43.517Z,97.91
2019-01-25T12:23:43.470Z,97.33
2019-01-25T12:24:43.434Z,96.26
2019-01-25T12:25:43.380Z,96.45
2019-01-25T12:26:45.001Z,96.26
2019-01-25T12:27:43.298Z,96.07
2019-01-25T12:28:43.242Z,95.20
2019-01-25T12:29:43.196Z,94.71
2019-01-25T12:30:43.156Z,95.29
2019-01-25T12:31:43.118Z,95.10
2019-01-25T12:32:43.067Z,95.29
2019-01-25T12:33:43.020Z,95.20
2019-01-25T12:34:42.977Z,95.49
2019-01-25T12:35:42.943Z,94.81
2019-01-25T12:36:42.886Z,94.23
2019-01-25T12:37:42.855Z,94.62
2019-01-25T12:38:42.797Z,93.26
2019-01-25T12:39:42.766Z,93.55
2019-01-25T12:40:42.839Z,94.23
2019-01-25T12:41:42.670Z,93.40
2019-01-25T12:42:42.633Z,93.21
2019-01-25T12:43:42.583Z,93.21
2019-01-25T12:44:42.544Z,94.18
2019-01-25T12:45:42.492Z,92.63
2019-01-25T12:46:42.447Z,92.82
2019-01-25T12:47:42.393Z,92.14
2019-01-25T12:48:42.367Z,91.41
2019-01-25T12:49:42.315Z,91.80
2019-01-25T12:50:42.275Z,90.25
2019-01-25T12:51:42.234Z,90.16